South Garden, Virginia
Current Conditions -  °F | °C
As of 7:15 AM on Sunday 23 Nov 2014 (Local Time) from KW13 Reporting Station
Scattered Clouds Scattered Clouds  
Wind Chill: 32°   Ceiling: Unl
Heat Index: 32°   Visibility: 10mi
Dew Point: 21°   Wind: 0mph
Humidity: 65%   Direction: NA
Pressure: 30.19"   Gusts: NA
Location:  37.9538°N, 78.6933°W
Report Text: KW13 231215Z AUTO 00000KT 10SM SCT120 00/M06 A3019 RMK AO1 T10011059
Loading
Personal Weather Stations






























Interactive Weather Map New forecast layout! Learn more

10-Day Weather Forecast

Advertisements
Track Severe Weather on mobile